createdAt,value
2023-03-20T00:00:47.639Z,10.46
2023-03-20T00:01:46.799Z,10.43
2023-03-20T00:02:47.025Z,10.47
2023-03-20T00:03:47.231Z,10.33
2023-03-20T00:04:48.232Z,10.34
2023-03-20T00:05:48.144Z,10.42
2023-03-20T00:06:47.677Z,10.33
2023-03-20T00:07:47.890Z,10.36
2023-03-20T00:08:48.078Z,10.30
2023-03-20T00:09:48.305Z,10.39
2023-03-20T00:10:48.484Z,10.36
2023-03-20T00:11:48.667Z,10.30
2023-03-20T00:12:48.878Z,10.34
2023-03-20T00:13:49.050Z,10.40
2023-03-20T00:14:49.277Z,10.33
2023-03-20T00:15:50.168Z,10.34
2023-03-20T00:16:49.688Z,10.33
2023-03-20T00:17:49.870Z,10.24
2023-03-20T00:18:50.041Z,10.28
2023-03-20T00:19:50.234Z,10.25
2023-03-20T00:20:50.400Z,10.24
2023-03-20T00:21:50.579Z,10.21
2023-03-20T00:22:50.784Z,10.19
2023-03-20T00:23:51.509Z,10.25
2023-03-20T00:24:52.641Z,10.21
2023-03-20T00:25:52.181Z,10.17
2023-03-20T00:26:52.182Z,10.10
2023-03-20T00:27:52.846Z,10.09
2023-03-20T00:28:52.202Z,10.12
2023-03-20T00:29:52.132Z,10.22
2023-03-20T00:30:52.289Z,10.28
2023-03-20T00:31:52.551Z,10.10
2023-03-20T00:32:52.736Z,10.22
2023-03-20T00:33:52.782Z,10.12
2023-03-20T00:34:54.645Z,10.15
2023-03-20T00:35:53.206Z,10.14
2023-03-20T00:36:53.390Z,10.09
2023-03-20T00:37:53.550Z,10.18
2023-03-20T00:38:54.198Z,10.06
2023-03-20T00:39:53.827Z,10.09
2023-03-20T00:40:53.955Z,10.07
2023-03-20T00:41:54.139Z,10.10
2023-03-20T00:42:54.292Z,10.09
2023-03-20T00:43:54.435Z,10.10
2023-03-20T00:44:54.648Z,10.09
2023-03-20T00:45:56.147Z,9.99
2023-03-20T00:46:55.107Z,10.06
2023-03-20T00:47:55.167Z,9.88
2023-03-20T00:48:55.316Z,9.91
2023-03-20T00:49:55.474Z,9.86
2023-03-20T00:50:55.656Z,9.93
2023-03-20T00:51:55.825Z,9.96
2023-03-20T00:52:55.959Z,9.91
2023-03-20T00:53:56.095Z,9.85
2023-03-20T00:54:57.153Z,9.68
2023-03-20T00:55:57.198Z,9.71
2023-03-20T00:56:56.602Z,9.68
2023-03-20T00:57:56.752Z,9.61
2023-03-20T00:58:56.892Z,9.66
2023-03-20T00:59:57.049Z,9.71
2023-03-20T01:00:57.230Z,9.60
2023-03-20T01:01:57.455Z,9.49
2023-03-20T01:02:59.155Z,9.50
2023-03-20T01:03:58.661Z,9.43
2023-03-20T01:04:57.912Z,9.49
2023-03-20T01:05:58.153Z,9.35
2023-03-20T01:06:58.301Z,9.43
2023-03-20T01:07:58.512Z,9.39
2023-03-20T01:08:58.691Z,9.27
2023-03-20T01:09:58.851Z,9.24
2023-03-20T01:10:58.985Z,9.25
2023-03-20T01:11:59.141Z,9.20
2023-03-20T01:12:59.287Z,9.13
2023-03-20T01:14:00.097Z,9.18
2023-03-20T01:14:59.627Z,9.23
2023-03-20T01:16:00.589Z,9.15
2023-03-20T01:17:00.018Z,9.04
2023-03-20T01:18:00.693Z,8.99
2023-03-20T01:19:00.380Z,9.05
2023-03-20T01:20:00.544Z,9.01
2023-03-20T01:21:00.714Z,9.04
2023-03-20T01:22:02.678Z,9.01
2023-03-20T01:23:01.046Z,9.04
2023-03-20T01:24:02.153Z,8.99
2023-03-20T01:25:01.396Z,8.96
2023-03-20T01:26:01.569Z,8.93
2023-03-20T01:27:01.722Z,9.02
2023-03-20T01:28:01.871Z,9.04
2023-03-20T01:29:02.023Z,9.01
2023-03-20T01:30:02.181Z,9.02
2023-03-20T01:31:02.352Z,8.99
2023-03-20T01:32:02.511Z,8.93
2023-03-20T01:33:02.770Z,9.01
2023-03-20T01:34:03.707Z,9.01
2023-03-20T01:35:03.082Z,8.97
2023-03-20T01:36:03.307Z,8.97
2023-03-20T01:37:03.397Z,8.96
2023-03-20T01:38:04.200Z,8.93
2023-03-20T01:39:04.210Z,8.87
2023-03-20T01:40:03.847Z,8.97
2023-03-20T01:41:04.657Z,8.90
2023-03-20T01:42:04.232Z,8.88
2023-03-20T01:43:04.417Z,8.90
2023-03-20T01:44:04.605Z,8.78
2023-03-20T01:45:05.710Z,8.79
2023-03-20T01:46:05.083Z,8.73
2023-03-20T01:47:05.195Z,8.71
2023-03-20T01:48:07.106Z,8.78
2023-03-20T01:49:06.199Z,8.72
2023-03-20T01:50:05.853Z,8.73
2023-03-20T01:51:06.667Z,8.78
2023-03-20T01:52:06.216Z,8.63
2023-03-20T01:53:07.050Z,8.75
2023-03-20T01:54:06.595Z,8.57
2023-03-20T01:55:07.668Z,8.72
2023-03-20T01:56:07.665Z,8.69
2023-03-20T01:57:07.668Z,8.71
2023-03-20T01:58:07.251Z,8.71
2023-03-20T01:59:07.399Z,8.63
2023-03-20T02:00:08.176Z,8.63
2023-03-20T02:01:08.718Z,8.65
2023-03-20T02:02:08.217Z,8.72
2023-03-20T02:03:08.101Z,8.65
2023-03-20T02:04:08.269Z,8.55
2023-03-20T02:05:08.515Z,8.68
2023-03-20T02:06:08.561Z,8.63
2023-03-20T02:07:08.719Z,8.65
2023-03-20T02:08:08.877Z,8.55
2023-03-20T02:09:10.186Z,8.57
2023-03-20T02:10:09.703Z,8.63
2023-03-20T02:11:09.359Z,8.71
2023-03-20T02:12:09.511Z,8.69
2023-03-20T02:13:09.705Z,8.76
2023-03-20T02:14:09.858Z,8.66
2023-03-20T02:15:11.173Z,8.60
2023-03-20T02:16:10.170Z,8.55
2023-03-20T02:17:10.349Z,8.54
2023-03-20T02:18:10.568Z,8.54
2023-03-20T02:19:10.730Z,8.50
2023-03-20T02:20:10.892Z,8.53
2023-03-20T02:21:11.709Z,8.53
2023-03-20T02:22:12.180Z,8.45
2023-03-20T02:23:12.171Z,8.51
2023-03-20T02:24:13.675Z,8.45
2023-03-20T02:25:11.809Z,8.50
2023-03-20T02:26:11.990Z,8.45
2023-03-20T02:27:12.675Z,8.48
2023-03-20T02:28:12.734Z,8.45
2023-03-20T02:29:14.175Z,8.33
2023-03-20T02:30:13.672Z,8.32
2023-03-20T02:31:12.938Z,8.33
2023-03-20T02:32:13.677Z,8.29
2023-03-20T02:33:13.252Z,8.30
2023-03-20T02:34:15.176Z,8.30
2023-03-20T02:35:13.483Z,8.35
2023-03-20T02:36:13.689Z,8.30
2023-03-20T02:37:14.684Z,8.21
2023-03-20T02:38:14.090Z,8.28
2023-03-20T02:39:14.240Z,8.30
2023-03-20T02:40:15.672Z,8.40
2023-03-20T02:41:14.660Z,8.32
2023-03-20T02:42:14.778Z,8.29
2023-03-20T02:43:14.933Z,8.26
2023-03-20T02:44:15.089Z,8.25
2023-03-20T02:45:15.264Z,8.21
2023-03-20T02:46:15.447Z,8.22
2023-03-20T02:47:15.624Z,8.28
2023-03-20T02:48:15.800Z,8.20
2023-03-20T02:49:16.714Z,8.21
2023-03-20T02:50:16.119Z,8.22
2023-03-20T02:51:17.177Z,8.12
2023-03-20T02:52:16.442Z,8.18
2023-03-20T02:53:16.647Z,8.11
2023-03-20T02:54:18.675Z,8.14
2023-03-20T02:55:18.686Z,8.08
2023-03-20T02:56:17.212Z,8.11
2023-03-20T02:57:17.410Z,8.08
2023-03-20T02:58:17.614Z,8.04
2023-03-20T02:59:17.770Z,8.11
2023-03-20T03:00:18.545Z,8.10
2023-03-20T03:01:18.700Z,8.11
2023-03-20T03:02:18.768Z,8.02
2023-03-20T03:03:18.359Z,8.10
2023-03-20T03:04:18.532Z,8.07
2023-03-20T03:05:18.692Z,8.14
2023-03-20T03:06:19.689Z,8.20
2023-03-20T03:07:19.061Z,8.07
2023-03-20T03:08:19.217Z,8.12
2023-03-20T03:09:19.368Z,8.20
2023-03-20T03:10:20.180Z,8.11
2023-03-20T03:11:19.695Z,8.11
2023-03-20T03:12:19.845Z,8.22
2023-03-20T03:13:20.687Z,8.11
2023-03-20T03:14:20.194Z,8.14
2023-03-20T03:15:20.318Z,8.14
2023-03-20T03:16:20.557Z,8.20
2023-03-20T03:17:20.623Z,8.04
2023-03-20T03:18:22.685Z,8.21
2023-03-20T03:19:20.901Z,8.12
2023-03-20T03:20:22.058Z,8.20
2023-03-20T03:21:22.196Z,8.21
2023-03-20T03:22:21.451Z,8.12
2023-03-20T03:23:23.557Z,8.12
2023-03-20T03:24:33.184Z,8.25
2023-03-20T03:25:24.692Z,8.18
2023-03-20T03:26:23.188Z,8.20
2023-03-20T03:27:22.218Z,8.28
2023-03-20T03:28:22.381Z,8.17
2023-03-20T03:29:22.570Z,8.28
2023-03-20T03:30:22.748Z,8.12
2023-03-20T03:31:22.992Z,8.15
2023-03-20T03:32:23.102Z,8.25
2023-03-20T03:33:23.273Z,8.28
2023-03-20T03:34:23.453Z,8.21
2023-03-20T03:35:24.187Z,8.22
2023-03-20T03:36:24.726Z,8.12
2023-03-20T03:37:23.986Z,8.14
2023-03-20T03:38:24.162Z,8.10
2023-03-20T03:39:24.338Z,8.21
2023-03-20T03:40:24.498Z,8.17
2023-03-20T03:41:24.700Z,8.14
2023-03-20T03:42:25.726Z,8.07
2023-03-20T03:43:24.987Z,8.12
2023-03-20T03:44:25.694Z,8.07
2023-03-20T03:45:25.358Z,8.11
2023-03-20T03:46:27.079Z,8.11
2023-03-20T03:47:26.698Z,8.14
2023-03-20T03:48:26.732Z,8.07
2023-03-20T03:49:27.055Z,8.11
2023-03-20T03:50:26.303Z,8.03
2023-03-20T03:51:26.464Z,8.00
2023-03-20T03:52:26.642Z,7.92
2023-03-20T03:53:26.805Z,7.87
2023-03-20T03:54:28.702Z,7.84
2023-03-20T03:55:27.207Z,7.99
2023-03-20T03:56:28.232Z,7.82
2023-03-20T03:57:28.696Z,7.81
2023-03-20T03:58:28.199Z,7.84
2023-03-20T03:59:28.559Z,7.85
2023-03-20T04:00:28.711Z,7.81
2023-03-20T04:01:29.314Z,7.84
2023-03-20T04:02:28.384Z,7.84
2023-03-20T04:03:28.525Z,7.84
2023-03-20T04:04:28.726Z,7.87
2023-03-20T04:05:28.917Z,7.92
2023-03-20T04:06:29.064Z,7.82
2023-03-20T04:07:30.197Z,7.85
2023-03-20T04:08:31.062Z,7.85
2023-03-20T04:09:29.698Z,7.85
2023-03-20T04:10:29.832Z,7.87
2023-03-20T04:11:30.003Z,8.02
2023-03-20T04:12:30.160Z,7.87
2023-03-20T04:13:30.339Z,7.87
2023-03-20T04:14:30.775Z,7.85
2023-03-20T04:15:30.666Z,7.87
2023-03-20T04:16:30.849Z,7.84
2023-03-20T04:17:31.055Z,7.84
2023-03-20T04:18:31.232Z,7.81
2023-03-20T04:19:32.205Z,7.74
2023-03-20T04:20:31.621Z,7.78
2023-03-20T04:21:31.813Z,7.77
2023-03-20T04:22:31.985Z,7.77
2023-03-20T04:23:32.248Z,7.79
2023-03-20T04:24:32.766Z,7.74
2023-03-20T04:25:32.425Z,7.78
2023-03-20T04:26:32.604Z,7.74
2023-03-20T04:27:32.783Z,7.69
2023-03-20T04:28:32.958Z,7.66
2023-03-20T04:29:33.148Z,7.72
2023-03-20T04:30:34.210Z,7.72
2023-03-20T04:31:33.592Z,7.74
2023-03-20T04:32:33.719Z,7.77
2023-03-20T04:33:33.810Z,7.74
2023-03-20T04:34:33.977Z,7.71
2023-03-20T04:35:36.781Z,7.75
2023-03-20T04:36:35.209Z,7.79
2023-03-20T04:37:35.219Z,7.75
2023-03-20T04:38:34.600Z,7.79
2023-03-20T04:39:34.781Z,7.72
2023-03-20T04:40:34.939Z,7.72
2023-03-20T04:41:36.707Z,7.71
2023-03-20T04:42:35.755Z,7.75
2023-03-20T04:43:36.713Z,7.74
2023-03-20T04:44:35.721Z,7.81
2023-03-20T04:45:37.085Z,7.72
2023-03-20T04:46:36.037Z,7.85
2023-03-20T04:47:36.189Z,7.77
2023-03-20T04:48:36.329Z,7.82
2023-03-20T04:49:36.507Z,7.85
2023-03-20T04:50:36.648Z,7.82
2023-03-20T04:51:36.794Z,7.85
2023-03-20T04:52:36.966Z,7.79
2023-03-20T04:53:37.130Z,7.84
2023-03-20T04:54:37.292Z,7.77
2023-03-20T04:55:38.720Z,7.78
2023-03-20T04:56:37.627Z,7.75
2023-03-20T04:57:37.769Z,7.74
2023-03-20T04:58:40.212Z,7.67
2023-03-20T04:59:38.721Z,7.69
2023-03-20T05:00:38.292Z,7.66
2023-03-20T05:01:38.474Z,7.72
2023-03-20T05:02:38.636Z,7.74
2023-03-20T05:03:39.000Z,7.62
2023-03-20T05:04:38.951Z,7.55
2023-03-20T05:05:39.095Z,7.62
2023-03-20T05:06:39.754Z,7.67
2023-03-20T05:07:39.379Z,7.72
2023-03-20T05:08:39.531Z,7.72
2023-03-20T05:09:39.669Z,7.85
2023-03-20T05:10:40.773Z,7.71
2023-03-20T05:11:40.752Z,7.69
2023-03-20T05:12:41.719Z,7.78
2023-03-20T05:13:42.217Z,7.75
2023-03-20T05:14:40.591Z,7.74
2023-03-20T05:15:40.739Z,7.75
2023-03-20T05:16:40.953Z,7.72
2023-03-20T05:17:41.598Z,7.69
2023-03-20T05:18:41.233Z,7.71
2023-03-20T05:19:42.256Z,7.75
2023-03-20T05:20:41.635Z,7.82
2023-03-20T05:21:42.713Z,7.72
2023-03-20T05:22:42.267Z,7.79
2023-03-20T05:23:42.147Z,7.75
2023-03-20T05:24:42.294Z,7.79
2023-03-20T05:25:43.253Z,7.75
2023-03-20T05:26:42.630Z,7.87
2023-03-20T05:27:42.807Z,7.72
2023-03-20T05:28:42.971Z,7.71
2023-03-20T05:29:44.127Z,7.74
2023-03-20T05:30:43.344Z,7.77
2023-03-20T05:31:44.213Z,7.67
2023-03-20T05:32:43.719Z,7.69
2023-03-20T05:33:44.712Z,7.59
2023-03-20T05:34:44.757Z,7.69
2023-03-20T05:35:44.218Z,7.58
2023-03-20T05:36:44.368Z,7.71
2023-03-20T05:37:44.489Z,7.74
2023-03-20T05:38:44.630Z,7.63
2023-03-20T05:39:44.797Z,7.69
2023-03-20T05:40:44.945Z,7.69
2023-03-20T05:41:45.964Z,7.66
2023-03-20T05:42:47.216Z,7.53
2023-03-20T05:43:45.415Z,7.49
2023-03-20T05:44:46.587Z,7.58
2023-03-20T05:45:45.725Z,7.66
2023-03-20T05:46:45.931Z,7.62
2023-03-20T05:47:46.085Z,7.59
2023-03-20T05:48:46.262Z,7.58
2023-03-20T05:49:46.409Z,7.59
2023-03-20T05:50:47.589Z,7.55
2023-03-20T05:51:46.845Z,7.58
2023-03-20T05:52:48.214Z,7.44
2023-03-20T05:53:47.228Z,7.60
2023-03-20T05:54:47.382Z,7.67
2023-03-20T05:55:48.229Z,7.66
2023-03-20T05:56:47.779Z,7.59
2023-03-20T05:57:48.278Z,7.56
2023-03-20T05:58:49.718Z,7.56
2023-03-20T05:59:49.291Z,7.52
2023-03-20T06:00:48.558Z,7.59
2023-03-20T06:01:48.724Z,7.59
2023-03-20T06:02:49.002Z,7.56
2023-03-20T06:03:49.755Z,7.63
2023-03-20T06:04:50.268Z,7.66
2023-03-20T06:05:49.527Z,7.58
2023-03-20T06:06:50.266Z,7.66
2023-03-20T06:07:50.763Z,7.71
2023-03-20T06:08:50.299Z,7.77
2023-03-20T06:09:50.188Z,7.71
2023-03-20T06:10:51.222Z,7.67
2023-03-20T06:11:50.479Z,7.72
2023-03-20T06:12:50.614Z,7.74
2023-03-20T06:13:50.785Z,7.81
2023-03-20T06:14:51.779Z,7.74
2023-03-20T06:15:51.226Z,7.82
2023-03-20T06:16:53.734Z,7.75
2023-03-20T06:17:51.585Z,7.81
2023-03-20T06:18:51.748Z,7.81
2023-03-20T06:19:51.900Z,7.84
2023-03-20T06:20:52.045Z,7.85
2023-03-20T06:21:52.766Z,7.90
2023-03-20T06:22:53.264Z,7.92
2023-03-20T06:23:52.552Z,7.89
2023-03-20T06:24:54.823Z,7.82
2023-03-20T06:25:52.891Z,7.87
2023-03-20T06:26:53.776Z,7.92
2023-03-20T06:27:54.595Z,7.90
2023-03-20T06:28:54.231Z,7.81
2023-03-20T06:29:53.488Z,7.79
2023-03-20T06:30:55.781Z,7.87
2023-03-20T06:31:55.229Z,7.87
2023-03-20T06:32:54.814Z,7.82
2023-03-20T06:33:54.147Z,7.81
2023-03-20T06:34:54.305Z,7.79
2023-03-20T06:35:55.494Z,7.81
2023-03-20T06:36:54.630Z,7.79
2023-03-20T06:37:54.794Z,7.79
2023-03-20T06:38:54.921Z,7.94
2023-03-20T06:39:55.075Z,7.84
2023-03-20T06:40:55.216Z,7.84
2023-03-20T06:41:55.408Z,7.90
2023-03-20T06:42:55.794Z,7.94
2023-03-20T06:43:57.244Z,7.93
2023-03-20T06:44:56.781Z,7.90
2023-03-20T06:45:56.045Z,7.92
2023-03-20T06:46:56.882Z,7.89
2023-03-20T06:47:56.372Z,7.96
2023-03-20T06:48:57.240Z,7.96
2023-03-20T06:49:56.744Z,7.75
2023-03-20T06:50:56.940Z,7.74
2023-03-20T06:51:57.117Z,7.78
2023-03-20T06:52:57.304Z,7.79
2023-03-20T06:53:57.494Z,7.84
2023-03-20T06:54:57.676Z,7.79
2023-03-20T06:55:58.740Z,7.89
2023-03-20T06:56:58.035Z,7.89
2023-03-20T06:57:58.782Z,7.96
2023-03-20T06:58:58.348Z,7.90
2023-03-20T06:59:59.229Z,7.96
2023-03-20T07:00:58.651Z,7.92
2023-03-20T07:01:58.991Z,7.96
2023-03-20T07:03:01.076Z,7.92
2023-03-20T07:03:59.776Z,7.92
2023-03-20T07:04:59.356Z,7.99
2023-03-20T07:05:59.549Z,7.97
2023-03-20T07:07:00.299Z,7.92
2023-03-20T07:07:59.854Z,8.03
2023-03-20T07:09:00.022Z,7.99
2023-03-20T07:10:00.216Z,7.96
2023-03-20T07:11:00.431Z,7.82
2023-03-20T07:12:02.334Z,7.93
2023-03-20T07:13:01.796Z,7.89
2023-03-20T07:14:01.777Z,7.87
2023-03-20T07:15:01.309Z,7.87
2023-03-20T07:16:04.905Z,7.87
2023-03-20T07:17:03.288Z,7.97
2023-03-20T07:18:02.750Z,7.94
2023-03-20T07:19:02.777Z,7.94
2023-03-20T07:20:02.750Z,7.85
2023-03-20T07:21:02.297Z,7.82
2023-03-20T07:22:02.830Z,7.92
2023-03-20T07:23:02.640Z,7.94
2023-03-20T07:24:02.820Z,7.92
2023-03-20T07:25:03.035Z,7.93
2023-03-20T07:26:03.765Z,7.96
2023-03-20T07:27:03.445Z,7.84
2023-03-20T07:28:03.636Z,7.97
2023-03-20T07:29:04.818Z,7.93
2023-03-20T07:30:04.031Z,8.07
2023-03-20T07:31:04.866Z,8.02
2023-03-20T07:32:05.457Z,8.12
2023-03-20T07:33:04.667Z,8.21
2023-03-20T07:34:04.771Z,8.25
2023-03-20T07:35:04.973Z,8.21
2023-03-20T07:36:05.214Z,8.20
2023-03-20T07:37:05.411Z,8.33
2023-03-20T07:38:06.247Z,8.36
2023-03-20T07:39:07.756Z,8.30
2023-03-20T07:40:05.915Z,8.30
2023-03-20T07:41:06.123Z,8.35
2023-03-20T07:42:06.350Z,8.40
2023-03-20T07:43:07.274Z,8.44
2023-03-20T07:44:06.612Z,8.47
2023-03-20T07:45:06.701Z,8.47
2023-03-20T07:46:07.026Z,8.53
2023-03-20T07:47:07.118Z,8.50
2023-03-20T07:48:07.336Z,8.54
2023-03-20T07:49:08.272Z,8.65
2023-03-20T07:50:08.421Z,8.60
2023-03-20T07:51:10.250Z,8.73
2023-03-20T07:52:08.042Z,8.69
2023-03-20T07:53:08.217Z,8.76
2023-03-20T07:54:08.419Z,8.63
2023-03-20T07:55:09.256Z,8.76
2023-03-20T07:56:08.817Z,8.84
2023-03-20T07:57:09.612Z,8.93
2023-03-20T07:58:09.164Z,8.83
2023-03-20T07:59:09.355Z,8.87
2023-03-20T08:00:09.543Z,8.86
2023-03-20T08:01:11.265Z,8.90
2023-03-20T08:02:09.922Z,8.93
2023-03-20T08:03:10.276Z,9.10
2023-03-20T08:04:10.354Z,9.15
2023-03-20T08:05:11.410Z,9.12
2023-03-20T08:06:10.610Z,9.27
2023-03-20T08:07:10.905Z,9.12
2023-03-20T08:08:10.944Z,9.10
2023-03-20T08:09:11.299Z,9.20
2023-03-20T08:10:12.122Z,9.25
2023-03-20T08:11:11.408Z,9.18
2023-03-20T08:12:11.607Z,9.23
2023-03-20T08:13:11.774Z,9.20
2023-03-20T08:14:11.956Z,8.97
2023-03-20T08:15:12.173Z,9.16
2023-03-20T08:16:12.386Z,9.10
2023-03-20T08:17:15.513Z,9.06
2023-03-20T08:18:13.612Z,9.05
2023-03-20T08:19:12.878Z,9.16
2023-03-20T08:20:13.034Z,9.16
2023-03-20T08:21:13.204Z,9.28
2023-03-20T08:22:14.253Z,9.27
2023-03-20T08:23:13.520Z,9.27
2023-03-20T08:24:13.808Z,9.35
2023-03-20T08:25:14.804Z,9.35
2023-03-20T08:26:15.818Z,9.48
2023-03-20T08:27:14.795Z,9.68
2023-03-20T08:28:14.341Z,9.73
2023-03-20T08:29:14.575Z,9.91
2023-03-20T08:30:16.257Z,10.06
2023-03-20T08:31:14.975Z,10.26
2023-03-20T08:32:15.059Z,10.34
2023-03-20T08:33:15.371Z,10.33
2023-03-20T08:34:16.300Z,10.19
2023-03-20T08:35:31.856Z,10.18
2023-03-20T08:36:18.677Z,10.26
2023-03-20T08:37:15.933Z,10.28
2023-03-20T08:38:16.763Z,10.52
2023-03-20T08:39:16.383Z,10.25
2023-03-20T08:40:17.419Z,10.01
2023-03-20T08:41:18.275Z,10.18
2023-03-20T08:42:18.767Z,10.04
2023-03-20T08:43:16.889Z,10.14
2023-03-20T08:44:18.285Z,10.01
2023-03-20T08:45:17.206Z,9.91
2023-03-20T08:46:18.382Z,9.88
2023-03-20T08:47:17.542Z,9.94
2023-03-20T08:48:17.712Z,9.91
2023-03-20T08:49:17.838Z,9.93
2023-03-20T08:50:18.016Z,9.81
2023-03-20T08:51:18.158Z,9.61
2023-03-20T08:52:18.309Z,9.35
2023-03-20T08:53:20.381Z,9.16
2023-03-20T08:54:18.649Z,9.27
2023-03-20T08:55:18.789Z,9.18
2023-03-20T08:56:19.817Z,9.25
2023-03-20T08:57:19.078Z,9.15
2023-03-20T08:58:19.271Z,9.15
2023-03-20T08:59:19.475Z,9.27
2023-03-20T09:00:19.635Z,8.99
2023-03-20T09:01:19.835Z,8.99
2023-03-20T09:02:20.120Z,8.97
2023-03-20T09:03:20.854Z,8.97
2023-03-20T09:04:20.429Z,9.02
2023-03-20T09:05:20.537Z,9.25
2023-03-20T09:06:20.797Z,9.10
2023-03-20T09:07:20.920Z,9.16
2023-03-20T09:08:22.319Z,9.15
2023-03-20T09:09:21.316Z,9.24
2023-03-20T09:10:21.459Z,9.23
2023-03-20T09:11:21.600Z,9.25
2023-03-20T09:12:21.761Z,9.35
2023-03-20T09:13:27.694Z,9.53
2023-03-20T09:14:24.154Z,9.50
2023-03-20T09:15:23.266Z,9.49
2023-03-20T09:16:23.375Z,9.58
2023-03-20T09:17:22.654Z,9.48
2023-03-20T09:18:24.777Z,9.58
2023-03-20T09:19:23.061Z,9.64
2023-03-20T09:20:23.289Z,9.81
2023-03-20T09:21:23.361Z,9.78
2023-03-20T09:22:24.283Z,9.81
2023-03-20T09:23:24.294Z,9.99
2023-03-20T09:24:23.968Z,9.97
2023-03-20T09:25:24.326Z,10.06
2023-03-20T09:26:24.350Z,10.01
2023-03-20T09:27:24.519Z,9.91
2023-03-20T09:28:25.274Z,9.83
2023-03-20T09:29:24.897Z,9.75
2023-03-20T09:30:25.120Z,9.94
2023-03-20T09:31:25.322Z,10.04
2023-03-20T09:32:25.538Z,10.07
2023-03-20T09:33:25.688Z,10.12
2023-03-20T09:34:25.882Z,10.06
2023-03-20T09:35:26.782Z,9.97
2023-03-20T09:36:26.219Z,9.89
2023-03-20T09:37:26.409Z,9.82
2023-03-20T09:38:28.777Z,9.91
2023-03-20T09:39:27.315Z,10.03
2023-03-20T09:40:27.006Z,10.01
2023-03-20T09:41:28.248Z,9.85
2023-03-20T09:42:28.323Z,9.93
2023-03-20T09:43:27.473Z,9.89
2023-03-20T09:44:28.315Z,10.07
2023-03-20T09:45:27.851Z,9.99
2023-03-20T09:46:28.123Z,10.10
2023-03-20T09:47:28.189Z,10.09
2023-03-20T09:48:28.385Z,10.04
2023-03-20T09:49:29.322Z,9.96
2023-03-20T09:50:29.323Z,9.85
2023-03-20T09:51:28.899Z,9.85
2023-03-20T09:52:30.644Z,9.76
2023-03-20T09:53:30.275Z,9.76
2023-03-20T09:54:30.243Z,9.91
2023-03-20T09:55:29.719Z,9.94
2023-03-20T09:56:30.814Z,9.96
2023-03-20T09:57:30.032Z,10.00
2023-03-20T09:58:31.775Z,10.14
2023-03-20T09:59:30.294Z,10.07
2023-03-20T10:00:30.449Z,9.99
2023-03-20T10:01:30.596Z,9.86
2023-03-20T10:02:30.802Z,9.81
2023-03-20T10:03:31.778Z,9.79
2023-03-20T10:04:32.195Z,9.88
2023-03-20T10:05:31.359Z,9.73
2023-03-20T10:06:31.524Z,9.79
2023-03-20T10:07:32.324Z,9.70
2023-03-20T10:08:31.839Z,9.82
2023-03-20T10:09:32.072Z,9.85
2023-03-20T10:10:32.288Z,9.91
2023-03-20T10:11:33.341Z,9.88
2023-03-20T10:12:32.584Z,9.81
2023-03-20T10:13:32.758Z,9.64
2023-03-20T10:14:32.941Z,9.81
2023-03-20T10:15:33.813Z,9.76
2023-03-20T10:16:33.384Z,9.79
2023-03-20T10:17:33.478Z,9.86
2023-03-20T10:18:34.278Z,9.78
2023-03-20T10:19:34.321Z,9.67
2023-03-20T10:20:35.107Z,9.70
2023-03-20T10:21:34.142Z,9.81
2023-03-20T10:22:35.301Z,9.86
2023-03-20T10:23:34.420Z,9.99
2023-03-20T10:24:34.862Z,10.06
2023-03-20T10:25:34.752Z,9.91
2023-03-20T10:26:34.932Z,10.03
2023-03-20T10:27:35.120Z,9.94
2023-03-20T10:28:35.309Z,9.99
2023-03-20T10:29:35.471Z,9.91
2023-03-20T10:30:35.874Z,9.89
2023-03-20T10:31:36.418Z,10.06
2023-03-20T10:32:36.069Z,10.10
2023-03-20T10:33:36.168Z,9.91
2023-03-20T10:34:37.317Z,9.89
2023-03-20T10:35:36.571Z,9.81
2023-03-20T10:36:36.757Z,9.86
2023-03-20T10:37:37.790Z,10.01
2023-03-20T10:38:37.194Z,10.06
2023-03-20T10:39:37.368Z,10.00
2023-03-20T10:40:38.729Z,9.96
2023-03-20T10:41:37.760Z,9.83
2023-03-20T10:42:37.976Z,9.89
2023-03-20T10:43:40.538Z,9.78
2023-03-20T10:44:39.394Z,9.94
2023-03-20T10:45:38.527Z,9.85
2023-03-20T10:46:39.364Z,9.82
2023-03-20T10:47:38.915Z,9.70
2023-03-20T10:48:39.080Z,9.56
2023-03-20T10:49:39.251Z,9.53
2023-03-20T10:50:40.382Z,9.64
2023-03-20T10:51:39.655Z,9.68
2023-03-20T10:52:39.843Z,9.71
2023-03-20T10:53:39.965Z,9.78
2023-03-20T10:54:40.124Z,9.85
2023-03-20T10:55:40.281Z,9.81
2023-03-20T10:56:40.433Z,9.79
2023-03-20T10:57:40.568Z,9.78
2023-03-20T10:58:40.719Z,9.76
2023-03-20T10:59:40.903Z,9.83
2023-03-20T11:00:41.082Z,9.70
2023-03-20T11:01:41.255Z,9.73
2023-03-20T11:02:41.444Z,9.71
2023-03-20T11:03:41.652Z,9.70
2023-03-20T11:04:41.794Z,9.68
2023-03-20T11:05:42.976Z,9.85
2023-03-20T11:06:42.092Z,9.85
2023-03-20T11:07:42.236Z,9.79
2023-03-20T11:08:42.393Z,9.85
2023-03-20T11:09:42.567Z,9.75
2023-03-20T11:10:43.356Z,9.85
2023-03-20T11:11:43.842Z,9.78
2023-03-20T11:12:43.019Z,9.78
2023-03-20T11:13:43.807Z,9.85
2023-03-20T11:14:43.348Z,10.01
2023-03-20T11:15:43.495Z,10.12
2023-03-20T11:16:43.740Z,10.18
2023-03-20T11:17:44.344Z,10.10
2023-03-20T11:18:43.990Z,10.17
2023-03-20T11:19:45.847Z,10.18
2023-03-20T11:20:44.846Z,10.25
2023-03-20T11:21:44.494Z,10.42
2023-03-20T11:22:44.699Z,10.43
2023-03-20T11:23:44.922Z,10.36
2023-03-20T11:24:45.825Z,10.37
2023-03-20T11:25:45.864Z,10.32
2023-03-20T11:26:45.412Z,10.26
2023-03-20T11:27:45.578Z,10.39
2023-03-20T11:28:45.789Z,10.46
2023-03-20T11:29:47.811Z,10.39
2023-03-20T11:31:03.498Z,10.36
2023-03-20T11:31:49.326Z,10.06
2023-03-20T11:32:46.643Z,10.03
2023-03-20T11:33:48.323Z,9.94
2023-03-20T11:34:46.963Z,9.93
2023-03-20T11:35:47.899Z,9.76
2023-03-20T11:36:53.034Z,9.88
2023-03-20T11:37:49.470Z,9.94
2023-03-20T11:38:47.632Z,9.81
2023-03-20T11:39:47.813Z,9.60
2023-03-20T11:40:48.811Z,9.46
2023-03-20T11:41:48.244Z,9.66
2023-03-20T11:42:48.473Z,9.66
2023-03-20T11:43:48.721Z,9.78
2023-03-20T11:44:49.848Z,9.78
2023-03-20T11:45:49.046Z,9.79
2023-03-20T11:46:49.157Z,9.71
2023-03-20T11:47:49.387Z,9.71
2023-03-20T11:48:49.618Z,9.61
2023-03-20T11:49:49.834Z,9.68
2023-03-20T11:50:50.043Z,9.56
2023-03-20T11:51:50.233Z,9.52
2023-03-20T11:52:51.312Z,9.57
2023-03-20T11:53:50.606Z,9.64
2023-03-20T11:54:50.837Z,9.82
2023-03-20T11:55:51.020Z,9.88
2023-03-20T11:56:51.193Z,10.04
2023-03-20T11:57:51.397Z,10.15
2023-03-20T11:58:51.578Z,10.30
2023-03-20T11:59:51.810Z,10.44
2023-03-20T12:00:51.918Z,10.52
2023-03-20T12:01:52.121Z,10.44
2023-03-20T12:02:52.584Z,10.55
2023-03-20T12:03:54.382Z,10.58
2023-03-20T12:04:52.699Z,10.55
2023-03-20T12:05:52.890Z,10.56
2023-03-20T12:06:53.819Z,10.47
2023-03-20T12:07:53.202Z,10.53
2023-03-20T12:08:53.413Z,10.53
2023-03-20T12:09:53.590Z,10.63
2023-03-20T12:10:53.799Z,10.59
2023-03-20T12:11:53.986Z,10.60
2023-03-20T12:12:54.684Z,10.62
2023-03-20T12:13:54.359Z,10.47
2023-03-20T12:14:55.327Z,10.52
2023-03-20T12:15:54.750Z,10.60
2023-03-20T12:16:55.983Z,10.59
2023-03-20T12:17:55.876Z,10.42
2023-03-20T12:18:56.872Z,10.40
2023-03-20T12:19:55.872Z,10.42
2023-03-20T12:20:55.714Z,10.55
2023-03-20T12:21:55.888Z,10.44
2023-03-20T12:22:56.107Z,10.56
2023-03-20T12:23:56.328Z,10.63
2023-03-20T12:24:57.371Z,10.78
2023-03-20T12:25:57.359Z,10.96
2023-03-20T12:26:57.690Z,10.78
2023-03-20T12:27:57.008Z,10.77
2023-03-20T12:28:57.862Z,10.73
2023-03-20T12:29:58.415Z,10.78
2023-03-20T12:30:59.365Z,10.84
2023-03-20T12:31:57.809Z,11.01
2023-03-20T12:32:59.340Z,10.94
2023-03-20T12:33:58.830Z,10.94
2023-03-20T12:34:58.382Z,10.95
2023-03-20T12:35:59.415Z,10.83
2023-03-20T12:36:59.328Z,10.99
2023-03-20T12:37:58.909Z,10.88
2023-03-20T12:38:59.099Z,10.98
2023-03-20T12:39:59.351Z,10.92
2023-03-20T12:41:00.371Z,10.99
2023-03-20T12:41:59.623Z,10.84
2023-03-20T12:42:59.802Z,10.88
2023-03-20T12:43:59.971Z,10.76
2023-03-20T12:45:00.870Z,10.78
2023-03-20T12:46:00.379Z,10.74
2023-03-20T12:47:00.585Z,10.73
2023-03-20T12:48:00.780Z,10.73
2023-03-20T12:49:01.873Z,10.88
2023-03-20T12:50:01.124Z,10.98
2023-03-20T12:51:01.882Z,10.91
2023-03-20T12:52:01.526Z,11.03
2023-03-20T12:53:02.196Z,10.86
2023-03-20T12:54:01.871Z,10.73
2023-03-20T12:55:02.067Z,10.80
2023-03-20T12:56:02.283Z,10.59
2023-03-20T12:57:02.476Z,10.52
2023-03-20T12:58:03.382Z,10.33
2023-03-20T12:59:03.374Z,10.12
2023-03-20T13:00:02.909Z,10.14
2023-03-20T13:01:03.095Z,10.04
2023-03-20T13:02:03.377Z,10.14
2023-03-20T13:03:03.643Z,10.09
2023-03-20T13:04:03.726Z,10.25
2023-03-20T13:05:03.989Z,10.06
2023-03-20T13:06:04.067Z,10.15
2023-03-20T13:07:07.448Z,10.19
2023-03-20T13:08:04.377Z,10.21
2023-03-20T13:09:05.605Z,10.18
2023-03-20T13:10:04.784Z,10.26
2023-03-20T13:11:04.979Z,10.17
2023-03-20T13:12:05.215Z,9.94
2023-03-20T13:13:05.410Z,9.89
2023-03-20T13:14:05.644Z,9.96
2023-03-20T13:15:05.837Z,10.00